Time,TemperatureF,DewpointF,PressureIn,WindDirection,WindDirectionDegrees,WindSpeedMPH,WindSpeedGustMPH,Humidity,HourlyPrecipIn,Conditions,Clouds,dailyrainin,SoftwareType,DateUTC
2013-02-25 00:03:00,70.5,69.3,29.93,South,180,0.0,0.0,96,0.00,,,0.00,meteobridge,2013-02-25 05:03:00,
2013-02-25 00:18:00,70.7,69.4,29.92,South,180,0.7,0.7,96,0.00,,,0.00,meteobridge,2013-02-25 05:18:00,
2013-02-25 00:33:00,70.7,69.4,29.92,SE,135,1.6,1.6,96,0.00,,,0.00,meteobridge,2013-02-25 05:33:00,
2013-02-25 00:48:00,70.9,69.6,29.91,South,180,1.6,1.6,96,0.00,,,0.00,meteobridge,2013-02-25 05:48:00,
2013-02-25 01:03:00,70.7,69.4,29.93,South,180,0.7,0.7,96,0.00,,,0.00,meteobridge,2013-02-25 06:03:00,
2013-02-25 01:18:00,70.7,69.4,29.91,South,180,0.7,0.7,96,0.00,,,0.00,meteobridge,2013-02-25 06:18:00,
2013-02-25 01:33:00,70.5,69.3,29.91,South,180,0.0,0.0,96,0.00,,,0.00,meteobridge,2013-02-25 06:33:00,
2013-02-25 01:48:00,70.3,69.1,29.91,South,180,1.6,1.6,96,0.00,,,0.00,meteobridge,2013-02-25 06:48:00,
2013-02-25 02:03:00,-999.0,-99.9,29.90,North,-999,-999.0,-999.0,-999,0.00,,,0.00,meteobridge,2013-02-25 07:03:00,
2013-02-25 02:18:00,70.2,69.3,29.90,South,180,0.7,0.7,97,0.00,,,0.00,meteobridge,2013-02-25 07:18:00,
2013-02-25 02:33:00,70.2,69.3,29.89,South,180,0.7,0.7,97,0.00,,,0.00,meteobridge,2013-02-25 07:33:00,
2013-02-25 02:48:00,70.2,69.3,29.89,East,90,1.6,1.6,97,0.00,,,0.00,meteobridge,2013-02-25 07:48:00,
2013-02-25 03:03:00,70.2,69.3,29.88,NE,45,3.1,3.1,97,0.00,,,0.00,meteobridge,2013-02-25 08:03:00,
2013-02-25 03:18:00,70.0,69.1,29.88,South,180,0.7,2.2,97,0.00,,,0.00,meteobridge,2013-02-25 08:18:00,
2013-02-25 03:33:00,69.4,68.2,29.87,SE,135,1.6,3.1,96,0.00,,,0.00,meteobridge,2013-02-25 08:33:00,
2013-02-25 03:48:00,68.9,67.6,29.87,East,90,1.6,1.6,96,0.00,,,0.00,meteobridge,2013-02-25 08:48:00,
2013-02-25 04:03:00,68.7,67.5,29.87,East,90,2.2,2.2,96,0.00,,,0.00,meteobridge,2013-02-25 09:03:00,
2013-02-25 04:18:00,68.5,67.3,29.86,East,90,1.6,1.6,96,0.00,,,0.00,meteobridge,2013-02-25 09:18:00,
2013-02-25 04:33:00,68.2,67.3,29.85,South,180,0.7,2.2,97,0.00,,,0.00,meteobridge,2013-02-25 09:33:00,
2013-02-25 04:49:00,68.0,67.1,29.85,East,90,1.6,1.6,97,0.00,,,0.00,meteobridge,2013-02-25 09:49:00,
2013-02-25 05:04:00,67.8,66.9,29.86,East,90,1.6,1.6,97,0.00,,,0.00,meteobridge,2013-02-25 10:04:00,
2013-02-25 05:19:00,67.6,66.7,29.85,SE,135,1.6,1.6,97,0.00,,,0.00,meteobridge,2013-02-25 10:19:00,
2013-02-25 05:34:00,67.6,66.7,29.86,South,180,1.6,1.6,97,0.00,,,0.00,meteobridge,2013-02-25 10:34:00,
2013-02-25 05:49:00,67.5,66.6,29.85,East,90,2.2,2.2,97,0.00,,,0.00,meteobridge,2013-02-25 10:49:00,
2013-02-25 06:04:00,67.5,66.6,29.86,SE,135,2.2,2.2,97,0.00,,,0.00,meteobridge,2013-02-25 11:04:00,
2013-02-25 06:19:00,67.5,66.6,29.86,East,90,1.6,1.6,97,0.00,,,0.00,meteobridge,2013-02-25 11:19:00,
2013-02-25 06:34:00,67.5,66.9,29.87,SE,135,1.6,1.6,98,0.00,,,0.00,meteobridge,2013-02-25 11:34:00,
2013-02-25 06:49:00,67.6,67.1,29.89,South,180,0.7,0.7,98,0.00,,,0.00,meteobridge,2013-02-25 11:49:00,
2013-02-25 07:04:00,67.6,66.7,29.89,SE,135,1.6,1.6,97,0.00,,,0.00,meteobridge,2013-02-25 12:04:00,
2013-02-25 07:19:00,67.8,66.9,29.89,SSE,158,1.6,1.6,97,0.00,,,0.00,meteobridge,2013-02-25 12:19:00,
2013-02-25 07:34:00,68.0,67.1,29.89,SE,135,0.7,0.7,97,0.00,,,0.00,meteobridge,2013-02-25 12:34:00,
2013-02-25 07:49:00,68.0,67.1,29.89,East,90,2.2,2.2,97,0.00,,,0.00,meteobridge,2013-02-25 12:49:00,
2013-02-25 08:04:00,68.2,67.3,29.90,SE,135,1.6,1.6,97,0.00,,,0.00,meteobridge,2013-02-25 13:04:00,
2013-02-25 08:19:00,68.4,67.5,29.90,South,180,1.6,1.6,97,0.00,,,0.00,meteobridge,2013-02-25 13:19:00,
2013-02-25 08:34:00,70.0,68.7,29.90,SE,135,1.6,2.2,96,0.00,,,0.00,meteobridge,2013-02-25 13:34:00,
2013-02-25 08:49:00,70.9,68.4,29.91,East,90,2.2,2.2,92,0.00,,,0.00,meteobridge,2013-02-25 13:49:00,
2013-02-25 09:04:00,72.3,69.6,29.91,South,180,1.6,1.6,91,0.00,,,0.00,meteobridge,2013-02-25 14:04:00,
2013-02-25 09:19:00,74.8,70.0,29.90,East,90,1.6,1.6,85,0.00,,,0.00,meteobridge,2013-02-25 14:19:00,
2013-02-25 09:34:00,76.5,70.2,29.91,South,180,0.7,1.6,81,0.00,,,0.00,meteobridge,2013-02-25 14:34:00,
2013-02-25 09:49:00,76.3,69.3,29.90,SE,135,1.6,1.6,79,0.00,,,0.00,meteobridge,2013-02-25 14:49:00,
2013-02-25 10:04:00,77.4,69.3,29.90,SE,135,3.1,3.1,76,0.00,,,0.00,meteobridge,2013-02-25 15:04:00,
2013-02-25 10:19:00,77.7,69.1,29.88,SW,225,1.6,4.5,75,0.00,,,0.00,meteobridge,2013-02-25 15:19:00,
2013-02-25 10:34:00,78.3,69.6,29.88,South,180,3.1,3.8,75,0.00,,,0.00,meteobridge,2013-02-25 15:34:00,
2013-02-25 10:49:00,78.6,69.6,29.88,South,180,1.6,2.2,74,0.00,,,0.00,meteobridge,2013-02-25 15:49:00,
2013-02-25 11:04:00,79.0,70.3,29.89,South,180,1.6,1.6,75,0.00,,,0.00,meteobridge,2013-02-25 16:04:00,
2013-02-25 11:19:00,79.5,70.5,29.88,South,180,3.1,4.5,74,0.00,,,0.00,meteobridge,2013-02-25 16:19:00,
2013-02-25 11:34:00,80.4,70.5,29.88,South,180,1.6,2.2,72,0.00,,,0.00,meteobridge,2013-02-25 16:34:00,
2013-02-25 11:49:00,81.1,70.9,29.88,South,180,2.2,2.2,71,0.00,,,0.00,meteobridge,2013-02-25 16:49:00,
2013-02-25 12:04:00,81.9,71.1,29.87,South,180,2.2,2.2,70,0.00,,,0.00,meteobridge,2013-02-25 17:04:00,
2013-02-25 12:19:00,81.5,71.2,29.87,SW,225,2.2,3.8,71,0.00,,,0.00,meteobridge,2013-02-25 17:19:00,
2013-02-25 12:34:00,80.8,71.8,29.86,West,270,6.9,8.3,74,0.00,,,0.00,meteobridge,2013-02-25 17:34:00,
2013-02-25 12:49:00,79.9,71.2,29.86,South,180,4.5,4.5,75,0.00,,,0.00,meteobridge,2013-02-25 17:49:00,
2013-02-25 13:04:00,80.6,71.1,29.86,SE,135,3.1,3.1,73,0.00,,,0.00,meteobridge,2013-02-25 18:04:00,
2013-02-25 13:19:00,81.9,71.6,29.85,South,180,5.4,5.4,71,0.00,,,0.00,meteobridge,2013-02-25 18:19:00,
2013-02-25 13:34:00,82.6,71.8,29.83,South,180,4.5,5.4,70,0.00,,,0.00,meteobridge,2013-02-25 18:34:00,
2013-02-25 13:49:00,81.9,71.6,29.83,SE,135,3.8,5.4,71,0.00,,,0.00,meteobridge,2013-02-25 18:49:00,
2013-02-25 14:04:00,83.1,72.3,29.82,South,180,3.8,3.8,70,0.00,,,0.00,meteobridge,2013-02-25 19:04:00,
2013-02-25 14:19:00,83.1,72.7,29.82,SE,135,2.2,5.4,71,0.00,,,0.00,meteobridge,2013-02-25 19:19:00,
2013-02-25 14:34:00,85.1,72.5,29.82,South,180,4.5,4.5,66,0.00,,,0.00,meteobridge,2013-02-25 19:34:00,
2013-02-25 14:49:00,84.9,72.7,29.81,SW,225,3.8,3.8,67,0.00,,,0.00,meteobridge,2013-02-25 19:49:00,
2013-02-25 15:04:00,85.5,72.3,29.81,South,180,7.6,7.6,65,0.00,,,0.00,meteobridge,2013-02-25 20:04:00,
2013-02-25 15:19:00,84.7,73.0,29.81,SE,135,3.8,5.4,68,0.00,,,0.00,meteobridge,2013-02-25 20:19:00,
2013-02-25 15:34:00,86.2,73.0,29.82,South,180,3.8,3.8,65,0.00,,,0.00,meteobridge,2013-02-25 20:34:00,
2013-02-25 15:49:00,82.8,72.3,29.81,SW,225,3.1,3.8,71,0.00,,,0.00,meteobridge,2013-02-25 20:49:00,
2013-02-25 16:04:00,81.7,72.1,29.82,South,180,3.1,3.1,73,0.00,,,0.00,meteobridge,2013-02-25 21:04:00,
2013-02-25 16:19:00,81.3,72.7,29.81,NW,315,2.2,4.5,75,0.00,,,0.00,meteobridge,2013-02-25 21:19:00,
2013-02-25 16:34:00,82.0,72.5,29.81,SW,225,1.6,2.2,73,0.00,,,0.00,meteobridge,2013-02-25 21:34:00,
2013-02-25 16:49:00,80.1,72.5,29.81,South,180,3.1,3.1,78,0.00,,,0.00,meteobridge,2013-02-25 21:49:00,
2013-02-25 17:04:00,79.5,72.5,29.80,South,180,2.2,2.2,79,0.00,,,0.00,meteobridge,2013-02-25 22:04:00,
2013-02-25 17:19:00,78.4,72.1,29.80,South,180,2.2,2.2,81,0.00,,,0.00,meteobridge,2013-02-25 22:19:00,
2013-02-25 17:35:00,77.9,72.0,29.80,SW,225,2.2,2.2,82,0.00,,,0.00,meteobridge,2013-02-25 22:35:00,
2013-02-25 17:50:00,77.7,72.1,29.81,SE,135,3.8,3.8,83,0.00,,,0.00,meteobridge,2013-02-25 22:50:00,
2013-02-25 18:05:00,77.5,72.0,29.81,South,180,2.2,2.2,83,0.00,,,0.00,meteobridge,2013-02-25 23:05:00,
2013-02-25 18:20:00,76.3,71.1,29.81,South,180,2.2,3.1,84,0.00,,,0.00,meteobridge,2013-02-25 23:20:00,
2013-02-25 18:35:00,75.4,71.2,29.81,SE,135,3.1,3.1,87,0.00,,,0.00,meteobridge,2013-02-25 23:35:00,
2013-02-25 18:50:00,75.0,71.2,29.81,South,180,1.6,3.1,88,0.00,,,0.00,meteobridge,2013-02-25 23:50:00,
2013-02-25 19:05:00,74.7,70.9,29.81,SE,135,2.2,3.8,88,0.00,,,0.00,meteobridge,2013-02-26 00:05:00,
2013-02-25 19:20:00,74.5,71.1,29.80,SE,135,1.6,1.6,89,0.00,,,0.00,meteobridge,2013-02-26 00:20:00,
2013-02-25 19:35:00,74.3,70.5,29.80,SSE,158,2.2,2.2,88,0.00,,,0.00,meteobridge,2013-02-26 00:35:00,
2013-02-25 19:50:00,74.1,70.7,29.80,SSE,158,1.6,1.6,89,0.00,,,0.00,meteobridge,2013-02-26 00:50:00,
2013-02-25 20:05:00,74.1,70.7,29.82,SW,225,0.7,0.7,89,0.00,,,0.00,meteobridge,2013-02-26 01:05:00,
2013-02-25 20:20:00,73.4,69.6,29.81,South,180,0.0,0.7,88,0.00,,,0.00,meteobridge,2013-02-26 01:20:00,
2013-02-25 20:35:00,72.7,69.3,29.82,South,180,0.0,0.0,89,0.00,,,0.00,meteobridge,2013-02-26 01:35:00,
2013-02-25 20:50:00,72.0,68.5,29.83,South,180,0.0,0.0,89,0.00,,,0.00,meteobridge,2013-02-26 01:50:00,
2013-02-25 21:05:00,71.6,68.5,29.83,South,180,0.0,0.0,90,0.00,,,0.00,meteobridge,2013-02-26 02:05:00,
2013-02-25 21:20:00,71.2,68.5,29.82,South,180,0.7,0.7,91,0.00,,,0.00,meteobridge,2013-02-26 02:20:00,
2013-02-25 21:35:00,71.2,68.5,29.82,South,180,0.0,-999.0,91,0.00,,,0.00,meteobridge,2013-02-26 02:35:00,
2013-02-25 21:50:00,71.2,68.7,29.81,South,180,1.6,1.6,92,0.00,,,0.00,meteobridge,2013-02-26 02:50:00,
2013-02-25 22:05:00,71.4,68.9,29.81,South,180,1.6,1.6,92,0.00,,,0.00,meteobridge,2013-02-26 03:05:00,
2013-02-25 22:20:00,71.8,69.1,29.80,South,180,1.6,2.2,91,0.00,,,0.00,meteobridge,2013-02-26 03:20:00,
2013-02-25 22:35:00,72.0,69.3,29.81,SE,135,1.6,1.6,91,0.00,,,0.00,meteobridge,2013-02-26 03:35:00,
2013-02-25 22:50:00,72.1,69.4,29.81,South,180,1.6,1.6,91,0.00,,,0.00,meteobridge,2013-02-26 03:50:00,
2013-02-25 23:05:00,72.1,69.1,29.81,SE,135,0.7,0.7,90,0.00,,,0.00,meteobridge,2013-02-26 04:05:00,
2013-02-25 23:20:00,72.1,68.7,29.81,SE,135,2.2,2.2,89,0.00,,,0.00,meteobridge,2013-02-26 04:20:00,
2013-02-25 23:35:00,72.7,69.3,29.81,South,180,2.2,2.2,89,0.00,,,0.00,meteobridge,2013-02-26 04:35:00,
2013-02-25 23:50:00,72.7,69.6,29.80,SE,135,1.6,1.6,90,0.00,,,0.00,meteobridge,2013-02-26 04:50:00,